Weather observations for the past three days for
Majuro Atoll - NWS Office
Imperial (Metric)
Date Time (+12) Wind (mph) Vis. (mi.) Weather Sky Cond. Temperature (ºF) Relative Humidity Wind Chill (°F) Heat Index (°F) Pressure Precipitation (in)
Air Dwpt 6 hour altimeter (in) sea level (mb) 1 hr 3 hr 6 hr
Max. Min.
03 06:51 Vrbl 3 15.00 Overcast FEW015 SCT050 BKN120 OVC300 82.8 76.3 81% 91 29.78 1008.4
03 05:52 Vrbl 3 15.00 Overcast FEW015 SCT050 BKN120 OVC300 82.8 75.9 82.8 82 80% 91 29.77 1008.1
03 04:52 Vrbl 3 15.00 Overcast FEW015 SCT050 BKN120 OVC300 82.6 76.3 81% 91 29.77 1008.1
03 03:51 Calm 15.00 Overcast FEW015 SCT050 BKN120 OVC300 82.6 76.3 81% 91 29.77 1008.1
03 02:52 Calm 15.00 Overcast FEW015 SCT050 BKN120 OVC300 82 76.1 82% 89 29.76 1007.8
03 01:51 Calm 15.00 Overcast FEW015 SCT050 BKN120 OVC300 82.4 76.5 82% 90 29.76 1007.9
03 00:53 Vrbl 3 15.00 Overcast FEW015 SCT050 BKN120 OVC300 82.6 77.2 84% 91 29.76 1007.9
02 23:51 Vrbl 3 15.00 Overcast FEW015 SCT050 BKN120 OVC300 82.8 76.5 83.3 82.2 81% 91 29.78 1008.6
02 22:50 Vrbl 3 15.00 Overcast FEW015 SCT050 BKN120 OVC300 82.2 76.5 83% 90 29.81 1009.5
02 21:51 Calm 15.00 Overcast FEW015 SCT050 BKN120 OVC300 82.2 76.6 83% 90 29.82 1009.9
02 20:52 Vrbl 5 15.00 Overcast FEW015 SCT050 BKN120 OVC300 83.1 77.2 82% 92 29.81 1009.6
02 19:54 Vrbl 5 15.00 Overcast FEW015 SCT050 BKN120 OVC300 83.1 76.3 80% 92 29.8 1009.0
02 18:50 Vrbl 3 15.00 Mostly Cloudy FEW015 SCT050 BKN300 83.3 77.2 82% 93 29.78 1008.4
02 17:51 Vrbl 3 15.00 Mostly Cloudy FEW015 SCT050 BKN300 83.1 76.3 88 83.1 80% 92 29.75 1007.6
02 16:52 Vrbl 3 15.00 Mostly Cloudy FEW015 SCT050 BKN300 83.8 77.4 81% 94 29.73 1006.9
02 15:53 Calm 15.00 Mostly Cloudy FEW015 SCT050 BKN300 85.8 76.8 75% 97 29.74 1007.0
02 14:52 NE 6 15.00 Overcast FEW015 SCT050 BKN120 OVC300 88 77.9 72% 101 29.73 1006.9
02 11:58 NE 3 15.00 Overcast FEW015 SCT050 BKN120 OVC300 85.1 77.2 87.6 81.5 77% 96 29.8 1009.1
02 10:58 NE 3 15.00 Overcast FEW015 SCT050 BKN120 OVC300 87.6 79.2 76% 103 29.82 1009.7
02 09:58 NE 3 15.00 Overcast FEW015 SCT050 BKN120 OVC300 85.8 78.3 78% 98 29.81 1009.5
02 08:58 Calm 15.00 Overcast FEW015 SCT050 BKN120 OVC300 83.8 78.1 83% 95 29.8 1009.2
02 07:58 NE 5 15.00 Overcast FEW015 SCT050 BKN120 OVC300 82.9 77.7 84% 93 29.79 1008.7
02 06:50 NE 6 15.00 Overcast FEW015 SCT050 OVC300 82 76.6 84% 90 29.79 1008.6
02 05:53 Calm 15.00 Overcast FEW015 SCT050 OVC300 81.5 76.5 81.5 79.3 85% 89 29.77 1008.0
02 04:58 Calm 15.00 Mostly Cloudy FEW015 SCT050 BKN300 80.6 76.3 87% 87 29.75 1007.4
02 03:50 Calm 15.00 Mostly Cloudy FEW015 SCT050 BKN300 80.8 75.7 85% 87 29.75 1007.5
02 02:58 NE 5 15.00 Mostly Cloudy FEW015 FEW050 BKN300 80.8 76.1 86% 87 29.77 1008.1
02 01:57 E 7 15.00 Mostly Cloudy FEW015 SCT050 BKN300 80.2 75.9 87% 86 29.77 1008.1
02 00:56 NE 6 15.00 Overcast FEW015 SCT050 BKN120 OVC300 79.9 75.4 86% 85 29.8 1009.1
01 23:56 Calm 15.00 Overcast SCT014 SCT050 OVC110 79.3 75.4 79.5 78.3 88% 84 29.81 1009.5 0.28
01 22:50 E 7 14.00 Light Rain SCT014 SCT045 BKN110 BKN130 78.8 75.4 89% 82 29.83 1010.0
01 21:50 E 3 14.00 Light Rain SCT014 SCT045 BKN110 BKN130 79.5 75.6 88% 84 29.84 1010.4
01 20:50 E 6 14.00 Light Rain SCT014 SCT045 BKN110 BKN130 79.5 75.7 88% 84 29.81 1009.6 0.13
01 19:55 E 3 10.00 Light Showers Rain SCT014TCU SCT045 BKN110 79.5 75.9 89% 84 29.81 1009.5
01 18:50 E 2 15.00 Overcast FEW014TCU SCT045 BKN110 OVC300 78.3 74.8 89% 81 29.79 1008.8
01 17:54 SE 9 9.00 Showers Rain SCT014TCU SCT045 BKN110 78.4 75 87.3 78.4 89% 82 29.78 1008.4 0.67
01 16:50 SE 9 11.00 Light Showers Rain SCT014TCU SCT045 BKN110 78.4 74.7 88% 81 29.76 1007.8
01 15:50 SE 9 11.00 Light Showers Rain SCT014TCU SCT045 BKN110 79.5 76.1 89% 84 29.76 1007.7
01 14:51 E 10 14.00 Overcast SCT014 BKN045 BKN110 OVC130 80.2 76.5 88% 86 29.76 1007.6 0.14
01 13:53 E 14 15.00 Overcast SCT014TCU BKN050 BKN120 OVC300 85.5 77.2 76% 96 29.77 1008.1
01 12:55 NE 13 15.00 Overcast FEW014 SCT050 BKN120 OVC300 86 77.2 75% 97 29.78 1008.5
01 10:54 NE 15 15.00 Overcast FEW015 SCT050 BKN120 OVC300 86.5 77.2 74% 98 29.81 1009.4
01 09:53 NE 14 15.00 Overcast FEW015 SCT050 BKN120 OVC300 85.5 76.5 75% 96 29.81 1009.6
01 08:51 NE 12 15.00 Overcast FEW015 SCT050 BKN120 OVC300 85.1 76.5 75% 95 29.82 1009.8
01 07:56 NE 12 15.00 Overcast FEW014 SCT050 BKN120 OVC300 84.7 75.9 75% 94 29.79 1008.9
01 06:51 E 16 15.00 Overcast FEW015 SCT050 OVC300 84.4 76.3 77% 94 29.77 1008.1
01 05:51 NE 18 15.00 Overcast FEW014TCU SCT050 OVC300 84 76.8 84 83.7 79% 94 29.76 1007.7
01 04:57 NE 23 15.00 Mostly Cloudy and Breezy FEW015 SCT050 BKN300 84 75.9 77% 93 29.75 1007.3
01 03:55 NE 22 15.00 Mostly Cloudy and Breezy FEW015 SCT050 BKN300 84 75.4 75% 92 29.74 1007.0
01 01:57 E 20 15.00 Mostly Cloudy FEW015 SCT050 BKN300 83.8 75.4 76% 92 29.74 1007.2
01 00:56 NE 21 15.00 Mostly Cloudy and Breezy FEW015 SCT050 BKN300 83.7 75.7 77% 92 29.75 1007.4
30 23:58 NE 22 15.00 Mostly Cloudy and Breezy FEW015 SCT050 BKN300 83.8 75.9 85.1 83.8 77% 93 29.8 1009.0
30 22:57 E 23 15.00 Mostly Cloudy and Breezy FEW015 SCT050 BKN300 84.6 76.1 76% 94 29.8 1009.2
30 21:52 NE 22 15.00 Partly Cloudy and Breezy FEW015 SCT300 84.4 75.9 76% 93 29.8 1009.0
30 20:52 NE 17 15.00 Partly Cloudy FEW015 SCT300 84.6 76.1 76% 94 29.78 1008.5
30 19:53 NE 10 15.00 Partly Cloudy FEW015 SCT300 84.9 76.6 76% 95 29.77 1008.1
30 18:56 NE 14 15.00 Overcast FEW015 SCT050 BKN120 OVC300 84.7 76.5 76% 95 29.76 1007.7
30 17:54 NE 7 15.00 Overcast FEW015 SCT050 BKN120 OVC300 85.1 77 87.1 85.1 77% 96 29.74 1007.0
30 16:50 NE 8 15.00 Overcast FEW015 SCT050 BKN120 OVC300 85.5 77.4 77% 97 29.74 1007.1
30 15:57 NE 12 15.00 Overcast FEW015 SCT050 BKN120 OVC300 86.4 77.9 76% 99 29.74 1007.1
30 14:56 NE 12 15.00 Overcast FEW015 SCT050 BKN120 OVC300 86.9 77.9 75% 100 29.75 1007.3
30 13:58 NE 15 15.00 Mostly Cloudy FEW015 SCT050 BKN120 BKN300 87.1 78.1 75% 100 29.77 1008.0
30 12:52 NE 12 15.00 Mostly Cloudy FEW015 SCT050 BKN120 BKN300 86.9 78.4 76% 100 29.8 1009.0
30 11:56 NE 14 15.00 Mostly Cloudy FEW015 SCT050 BKN120 BKN300 86.9 78.6 86.9 82.9 76% 101 29.82 1010.0 0.02
30 10:58 E 15 15.00 Overcast FEW015 SCT050 BKN120 OVC300 86 79.2 80% 100 29.84 1010.7
30 09:55 NE 14 15.00 Overcast FEW014 SCT050 OVC300 85.1 78.8 81% 98 29.86 1011.3
30 08:52 NE 12 15.00 Mostly Cloudy FEW014TCU SCT050 BKN300 84.7 77.7 80% 96 29.86 1011.0
Date Time (+12) Wind (mph) Vis. (mi.) Weather Sky Cond. Air Dwpt Max. Min. Relative Humidity Wind Chill (°F) Heat Index (°F) altimeter (in) sea level (mb) 1 hr 3 hr 6 hr
6 hour
Temperature (ºF) Pressure Precipitation (in)